createdAt,value
2022-08-12T00:00:02.336Z,7.95
2022-08-12T00:02:46.295Z,7.90
2022-08-12T00:05:31.881Z,8.23
2022-08-12T00:08:14.519Z,7.60
2022-08-12T00:10:56.666Z,8.00
2022-08-12T00:13:38.807Z,8.10
2022-08-12T00:16:21.195Z,7.93
2022-08-12T00:19:03.271Z,8.70
2022-08-12T00:21:48.222Z,8.38
2022-08-12T00:24:30.301Z,8.48
2022-08-12T00:27:13.221Z,8.40
2022-08-12T00:29:55.739Z,8.15
2022-08-12T00:32:38.452Z,8.23
2022-08-12T00:35:23.539Z,8.18
2022-08-12T00:38:12.797Z,9.00
2022-08-12T00:40:55.716Z,8.23
2022-08-12T00:43:27.419Z,8.43
2022-08-12T00:46:10.067Z,7.85
2022-08-12T00:48:40.056Z,8.07
2022-08-12T00:51:11.640Z,8.27
2022-08-12T00:53:44.087Z,8.37
2022-08-12T00:56:13.734Z,8.50
2022-08-12T00:58:50.911Z,7.85
2022-08-12T01:01:21.128Z,7.97
2022-08-12T01:04:04.668Z,8.60
2022-08-12T01:06:54.132Z,9.13
2022-08-12T01:09:39.389Z,8.40
2022-08-12T01:12:09.466Z,8.32
2022-08-12T01:14:40.900Z,7.80
2022-08-12T01:17:10.868Z,7.90
2022-08-12T01:19:40.723Z,8.25
2022-08-12T01:22:25.864Z,8.50
2022-08-12T01:25:08.194Z,8.80
2022-08-12T01:27:39.193Z,8.43
2022-08-12T01:30:11.520Z,8.25
2022-08-12T01:32:43.647Z,8.80
2022-08-12T01:35:16.371Z,8.68
2022-08-12T01:37:50.041Z,9.30
2022-08-12T01:40:36.046Z,8.70
2022-08-12T01:43:09.676Z,8.70
2022-08-12T01:45:44.294Z,8.43
2022-08-12T01:48:22.731Z,9.57
2022-08-12T01:51:04.544Z,8.20
2022-08-12T01:53:50.168Z,7.97
2022-08-12T01:56:25.970Z,8.27
2022-08-12T01:59:12.642Z,8.50
2022-08-12T02:01:43.400Z,8.45
2022-08-12T02:04:34.149Z,8.38
2022-08-12T02:07:23.910Z,8.20
2022-08-12T02:10:49.470Z,8.70
2022-08-12T02:13:13.395Z,9.25
2022-08-12T02:15:48.484Z,9.00
2022-08-12T02:18:29.498Z,9.07
2022-08-12T02:21:04.937Z,8.75
2022-08-12T02:23:36.384Z,9.10
2022-08-12T02:26:08.529Z,9.45
2022-08-12T02:28:42.283Z,8.40
2022-08-12T02:31:12.629Z,8.73
2022-08-12T02:33:42.827Z,8.40
2022-08-12T02:36:12.855Z,8.73
2022-08-12T02:38:45.556Z,9.07
2022-08-12T02:41:18.773Z,9.35
2022-08-12T02:43:54.388Z,9.52
2022-08-12T02:46:29.203Z,9.40
2022-08-12T02:49:01.900Z,8.87
2022-08-12T02:51:33.871Z,8.25
2022-08-12T02:54:06.575Z,9.10
2022-08-12T02:56:37.817Z,8.95
2022-08-12T02:59:12.375Z,8.85
2022-08-12T03:01:48.137Z,9.45
2022-08-12T03:04:23.245Z,8.90
2022-08-12T03:06:56.936Z,9.30
2022-08-12T03:09:27.582Z,9.48
2022-08-12T03:12:09.607Z,9.80
2022-08-12T03:14:47.493Z,9.40
2022-08-12T03:17:20.950Z,9.00
2022-08-12T03:20:09.473Z,10.60
2022-08-12T03:22:42.681Z,9.80
2022-08-12T03:25:16.325Z,9.00
2022-08-12T03:27:49.913Z,9.88
2022-08-12T03:30:23.618Z,9.48
2022-08-12T03:32:54.459Z,9.30
2022-08-12T03:35:40.980Z,9.80
2022-08-12T03:38:16.128Z,9.80
2022-08-12T03:41:07.699Z,9.82
2022-08-12T03:44:00.257Z,9.90
2022-08-12T03:46:49.001Z,9.35
2022-08-12T03:49:31.329Z,9.77
2022-08-12T03:52:14.014Z,9.70
2022-08-12T03:54:56.119Z,8.70
2022-08-12T03:57:38.378Z,9.47
2022-08-12T04:00:26.004Z,9.77
2022-08-12T04:03:01.853Z,9.93
2022-08-12T04:05:56.204Z,9.68
2022-08-12T04:08:25.984Z,9.07
2022-08-12T04:11:08.992Z,9.10
2022-08-12T04:13:38.779Z,8.73
2022-08-12T04:16:10.188Z,9.70
2022-08-12T04:18:42.910Z,10.02
2022-08-12T04:21:16.085Z,9.63
2022-08-12T04:23:48.574Z,9.40
2022-08-12T04:26:19.056Z,10.35
2022-08-12T04:28:48.758Z,10.20
2022-08-12T04:31:18.546Z,10.00
2022-08-12T04:33:50.947Z,9.15
2022-08-12T04:36:20.817Z,9.70
2022-08-12T04:38:50.604Z,9.23
2022-08-12T04:41:21.316Z,9.90
2022-08-12T04:43:54.506Z,9.52
2022-08-12T04:46:34.602Z,10.20
2022-08-12T04:49:07.991Z,10.38
2022-08-12T04:51:38.155Z,9.40
2022-08-12T04:54:08.118Z,9.10
2022-08-12T04:56:37.788Z,9.45
2022-08-12T04:59:07.805Z,9.40
2022-08-12T05:01:37.469Z,10.43
2022-08-12T05:04:10.917Z,10.30
2022-08-12T05:06:40.794Z,10.20
2022-08-12T05:09:10.980Z,9.90
2022-08-12T05:11:53.706Z,10.33
2022-08-12T05:14:24.021Z,10.80
2022-08-12T05:16:53.786Z,10.10
2022-08-12T05:19:26.751Z,10.20
2022-08-12T05:21:56.535Z,9.87
2022-08-12T05:24:26.233Z,9.10
2022-08-12T05:26:56.129Z,10.77
2022-08-12T05:30:06.267Z,10.95
2022-08-12T05:32:20.687Z,9.48
2022-08-12T05:34:53.496Z,10.68
2022-08-12T05:37:23.723Z,10.20
2022-08-12T05:39:53.647Z,9.68
2022-08-12T05:42:32.489Z,11.07
2022-08-12T05:45:04.512Z,9.80
2022-08-12T05:47:44.774Z,10.20
2022-08-12T05:50:26.555Z,10.63
2022-08-12T05:52:56.185Z,9.82
2022-08-12T05:55:31.095Z,10.53
2022-08-12T05:58:01.674Z,9.98
2022-08-12T06:00:32.079Z,10.20
2022-08-12T06:03:03.626Z,10.60
2022-08-12T06:05:51.810Z,9.80
2022-08-12T06:08:26.818Z,10.85
2022-08-12T06:10:57.193Z,9.70
2022-08-12T06:13:52.925Z,9.23
2022-08-12T06:16:18.926Z,9.70
2022-08-12T06:18:48.952Z,10.05
2022-08-12T06:21:23.424Z,10.07
2022-08-12T06:23:54.502Z,9.55
2022-08-12T06:26:24.151Z,9.60
2022-08-12T06:28:54.380Z,10.35
2022-08-12T06:31:26.966Z,9.30
2022-08-12T06:35:09.167Z,8.95
2022-08-12T06:36:50.533Z,9.30
2022-08-12T06:39:20.477Z,9.00
2022-08-12T06:42:32.102Z,9.00
2022-08-12T06:44:52.540Z,9.90
2022-08-12T06:47:22.200Z,9.00
2022-08-12T06:49:52.492Z,9.50
2022-08-12T06:52:25.128Z,10.02
2022-08-12T06:54:55.787Z,10.23
2022-08-12T06:58:05.549Z,10.35
2022-08-12T07:00:19.316Z,9.95
2022-08-12T07:02:49.060Z,9.75
2022-08-12T07:05:24.787Z,9.93
2022-08-12T07:08:12.909Z,10.68
2022-08-12T07:10:45.366Z,11.52
2022-08-12T07:13:15.203Z,11.18
2022-08-12T07:15:45.352Z,9.63
2022-08-12T07:18:19.939Z,9.85
2022-08-12T07:20:52.948Z,11.52
2022-08-12T07:23:25.522Z,9.70
2022-08-12T07:25:58.305Z,10.23
2022-08-12T07:28:31.056Z,10.10
2022-08-12T07:31:00.912Z,10.70
2022-08-12T07:33:32.926Z,9.82
2022-08-12T07:36:06.217Z,9.60
2022-08-12T07:38:42.350Z,9.80
2022-08-12T07:41:15.529Z,9.93
2022-08-12T07:43:47.422Z,9.85
2022-08-12T07:46:20.499Z,9.20
2022-08-12T07:48:52.345Z,9.32
2022-08-12T07:51:24.857Z,9.55
2022-08-12T07:54:00.749Z,9.25
2022-08-12T07:56:33.845Z,9.30
2022-08-12T07:59:04.772Z,8.98
2022-08-12T08:01:38.303Z,7.53
2022-08-12T08:04:23.123Z,7.20
2022-08-12T08:06:53.174Z,7.50
2022-08-12T08:09:26.829Z,6.88
2022-08-12T08:12:09.658Z,6.70
2022-08-12T08:14:51.981Z,6.93
2022-08-12T08:17:23.461Z,7.20
2022-08-12T08:20:03.733Z,7.50
2022-08-12T08:22:41.419Z,5.47
2022-08-12T08:25:36.315Z,4.60
2022-08-12T08:28:06.364Z,4.35
2022-08-12T08:30:38.350Z,4.20
2022-08-12T08:33:24.456Z,4.70
2022-08-12T08:36:00.877Z,5.00
2022-08-12T08:38:35.203Z,5.05
2022-08-12T08:42:16.578Z,4.00
2022-08-12T08:44:11.916Z,4.00
2022-08-12T08:46:43.951Z,4.00
2022-08-12T08:49:16.124Z,3.78
2022-08-12T08:51:48.328Z,3.63
2022-08-12T08:54:19.890Z,3.67
2022-08-12T08:56:54.026Z,3.10
2022-08-12T08:59:24.474Z,3.10
2022-08-12T09:01:54.505Z,3.15
2022-08-12T09:05:11.902Z,3.10
2022-08-12T09:10:04.034Z,3.22
2022-08-12T09:12:54.553Z,3.43
2022-08-12T09:15:35.665Z,3.20
2022-08-12T09:18:09.033Z,3.45
2022-08-12T09:20:40.182Z,3.13
2022-08-12T09:23:59.128Z,3.22
2022-08-12T09:26:04.902Z,3.60
2022-08-12T09:32:03.216Z,3.27
2022-08-12T09:34:26.181Z,3.60
2022-08-12T09:37:00.408Z,3.42
2022-08-12T09:40:05.197Z,3.10
2022-08-12T09:42:43.511Z,3.30
2022-08-12T09:46:06.329Z,3.72
2022-08-12T09:48:20.023Z,3.88
2022-08-12T09:50:55.604Z,3.90
2022-08-12T09:54:34.137Z,3.40
2022-08-12T09:56:58.244Z,3.70
2022-08-12T09:59:10.063Z,3.80
2022-08-12T10:02:41.928Z,3.42
2022-08-12T10:04:32.842Z,3.70
2022-08-12T10:07:03.075Z,3.58
2022-08-12T10:09:57.387Z,3.20
2022-08-12T10:12:37.426Z,3.30
2022-08-12T10:15:08.035Z,3.70
2022-08-12T10:18:05.965Z,3.47
2022-08-12T10:20:37.508Z,3.45
2022-08-12T10:23:07.242Z,3.03
2022-08-12T10:26:35.409Z,3.00
2022-08-12T10:29:02.811Z,3.03
2022-08-12T10:32:19.736Z,2.90
2022-08-12T10:34:27.042Z,3.00
2022-08-12T10:37:10.744Z,3.30
2022-08-12T10:40:01.022Z,3.13
2022-08-12T10:42:54.114Z,2.83
2022-08-12T10:45:23.976Z,3.30
2022-08-12T10:48:15.945Z,2.97
2022-08-12T10:51:01.500Z,3.40
2022-08-12T10:53:45.504Z,3.10
2022-08-12T10:56:17.171Z,3.17
2022-08-12T10:58:48.430Z,3.28
2022-08-12T11:01:49.294Z,3.30
2022-08-12T11:04:26.953Z,3.13
2022-08-12T11:08:37.848Z,2.95
2022-08-12T11:09:59.984Z,2.70
2022-08-12T11:12:54.986Z,2.97
2022-08-12T11:15:33.174Z,2.70
2022-08-12T11:18:17.846Z,3.90
2022-08-12T11:20:49.255Z,3.50
2022-08-12T11:23:37.135Z,2.90
2022-08-12T11:26:09.044Z,3.00
2022-08-12T11:28:39.946Z,3.33
2022-08-12T11:31:14.269Z,3.50
2022-08-12T11:34:05.706Z,3.13
2022-08-12T11:36:39.489Z,2.83
2022-08-12T11:39:13.075Z,3.00
2022-08-12T11:41:43.226Z,3.58
2022-08-12T11:44:36.812Z,3.22
2022-08-12T11:47:09.574Z,3.10
2022-08-12T11:49:39.475Z,3.00
2022-08-12T11:52:35.319Z,2.80
2022-08-12T11:55:01.616Z,2.53
2022-08-12T11:58:17.199Z,2.70
2022-08-12T12:02:01.267Z,2.63
2022-08-12T12:03:12.327Z,2.90
2022-08-12T12:05:46.978Z,2.63
2022-08-12T12:08:38.112Z,2.40
2022-08-12T12:11:14.971Z,2.67
2022-08-12T12:14:07.684Z,2.50
2022-08-12T12:16:38.312Z,2.42
2022-08-12T12:19:10.586Z,3.20
2022-08-12T12:21:47.376Z,2.75
2022-08-12T12:24:21.831Z,2.70
2022-08-12T12:27:00.411Z,2.80
2022-08-12T12:30:14.096Z,2.92
2022-08-12T12:32:28.962Z,2.90
2022-08-12T12:35:14.352Z,2.90
2022-08-12T12:38:03.616Z,2.88
2022-08-12T12:40:35.642Z,2.80
2022-08-12T12:43:13.774Z,2.70
2022-08-12T12:45:46.379Z,2.60
2022-08-12T12:48:17.737Z,2.65
2022-08-12T12:51:09.434Z,2.50
2022-08-12T12:54:08.845Z,2.60
2022-08-12T12:56:33.943Z,2.80
2022-08-12T12:59:07.608Z,2.58
2022-08-12T13:02:08.102Z,2.22
2022-08-12T13:04:38.780Z,2.30
2022-08-12T13:07:09.464Z,2.53
2022-08-12T13:09:39.227Z,2.70
2022-08-12T13:12:12.611Z,2.60
2022-08-12T13:14:45.003Z,2.38
2022-08-12T13:17:16.669Z,2.47
2022-08-12T13:19:49.957Z,2.20
2022-08-12T13:22:21.633Z,2.42
2022-08-12T13:24:56.929Z,2.60
2022-08-12T13:27:34.428Z,2.42
2022-08-12T13:30:11.565Z,2.45
2022-08-12T13:32:43.629Z,2.60
2022-08-12T13:35:33.223Z,2.60
2022-08-12T13:38:34.685Z,2.42
2022-08-12T13:41:11.039Z,2.40
2022-08-12T13:43:41.992Z,2.20
2022-08-12T13:46:16.515Z,2.60
2022-08-12T13:48:46.192Z,2.40
2022-08-12T13:51:21.028Z,2.10
2022-08-12T13:53:58.299Z,2.20
2022-08-12T13:56:34.673Z,2.45
2022-08-12T13:59:08.104Z,2.33
2022-08-12T14:01:41.313Z,2.28
2022-08-12T14:04:11.642Z,2.40
2022-08-12T14:06:41.966Z,2.40
2022-08-12T14:09:17.757Z,2.60
2022-08-12T14:11:58.356Z,2.65
2022-08-12T14:14:31.153Z,2.25
2022-08-12T14:17:10.374Z,2.30
2022-08-12T14:20:00.993Z,2.38
2022-08-12T14:22:32.112Z,2.50
2022-08-12T14:25:03.083Z,2.40
2022-08-12T14:28:03.255Z,2.42
2022-08-12T14:30:29.653Z,2.50
2022-08-12T14:33:03.431Z,2.42
2022-08-12T14:35:41.200Z,2.40
2022-08-12T14:38:26.183Z,2.42
2022-08-12T14:40:59.264Z,2.40
2022-08-12T14:43:58.734Z,2.22
2022-08-12T14:46:24.344Z,2.08
2022-08-12T14:48:57.023Z,2.50
2022-08-12T14:52:48.298Z,2.38
2022-08-12T14:57:19.870Z,2.50
2022-08-12T15:00:05.947Z,2.40
2022-08-12T15:02:35.746Z,2.53
2022-08-12T15:05:08.858Z,2.90
2022-08-12T15:07:49.957Z,2.75
2022-08-12T15:10:25.381Z,2.40
2022-08-12T15:13:07.213Z,2.42
2022-08-12T15:15:43.626Z,2.40
2022-08-12T15:18:20.845Z,2.40
2022-08-12T15:20:55.834Z,2.30
2022-08-12T15:23:32.765Z,2.60
2022-08-12T15:26:04.936Z,2.80
2022-08-12T15:28:37.026Z,2.25
2022-08-12T15:31:09.587Z,2.22
2022-08-12T15:33:58.172Z,2.00
2022-08-12T15:36:54.183Z,2.20
2022-08-12T15:39:20.187Z,1.92
2022-08-12T15:41:55.304Z,2.30
2022-08-12T15:44:38.022Z,2.40
2022-08-12T15:47:12.308Z,2.42
2022-08-12T15:50:00.015Z,2.20
2022-08-12T15:52:33.383Z,2.13
2022-08-12T15:55:06.346Z,2.55
2022-08-12T15:57:53.206Z,2.20
2022-08-12T16:00:33.105Z,2.20
2022-08-12T16:03:05.499Z,2.30
2022-08-12T16:06:17.020Z,2.03
2022-08-12T16:08:35.753Z,2.17
2022-08-12T16:11:16.089Z,2.40
2022-08-12T16:13:48.719Z,2.00
2022-08-12T16:16:23.501Z,2.78
2022-08-12T16:18:59.550Z,2.30
2022-08-12T16:21:52.682Z,2.20
2022-08-12T16:24:22.101Z,2.17
2022-08-12T16:26:54.149Z,2.10
2022-08-12T16:29:29.511Z,2.30
2022-08-12T16:32:23.924Z,2.33
2022-08-12T16:34:55.899Z,2.00
2022-08-12T16:38:04.783Z,1.83
2022-08-12T16:40:18.876Z,1.90
2022-08-12T16:42:53.982Z,2.40
2022-08-12T16:46:05.532Z,2.20
2022-08-12T16:48:34.972Z,2.40
2022-08-12T16:51:09.537Z,2.10
2022-08-12T16:53:44.419Z,2.22
2022-08-12T16:56:18.395Z,2.20
2022-08-12T16:58:52.114Z,2.15
2022-08-12T17:01:22.237Z,22.05
2022-08-12T17:04:04.558Z,4.95
2022-08-12T17:06:43.281Z,2.28
2022-08-12T17:09:17.719Z,1.90
2022-08-12T17:11:50.744Z,2.50
2022-08-12T17:14:23.472Z,2.38
2022-08-12T17:16:55.601Z,2.60
2022-08-12T17:19:54.666Z,2.03
2022-08-12T17:22:16.865Z,2.30
2022-08-12T17:24:55.884Z,2.22
2022-08-12T17:27:30.831Z,2.03
2022-08-12T17:30:04.826Z,2.05
2022-08-12T17:32:36.936Z,2.47
2022-08-12T17:35:20.638Z,2.30
2022-08-12T17:37:54.674Z,2.07
2022-08-12T17:40:36.332Z,2.13
2022-08-12T17:43:56.784Z,2.20
2022-08-12T17:46:02.027Z,1.80
2022-08-12T17:48:34.781Z,2.00
2022-08-12T17:51:15.517Z,1.95
2022-08-12T17:54:10.766Z,2.10
2022-08-12T17:56:39.332Z,2.20
2022-08-12T17:59:13.117Z,2.20
2022-08-12T18:01:46.128Z,2.30
2022-08-12T18:04:22.798Z,1.80
2022-08-12T18:07:06.199Z,2.40
2022-08-12T18:09:40.994Z,2.40
2022-08-12T18:12:26.916Z,2.67
2022-08-12T18:15:03.173Z,2.10
2022-08-12T18:17:40.970Z,1.90
2022-08-12T18:20:15.756Z,2.50
2022-08-12T18:22:46.760Z,2.30
2022-08-12T18:26:12.381Z,2.40
2022-08-12T18:28:30.857Z,1.95
2022-08-12T18:31:04.552Z,2.60
2022-08-12T18:33:44.013Z,1.85
2022-08-12T18:36:22.503Z,2.40
2022-08-12T18:38:59.495Z,2.30
2022-08-12T18:41:33.653Z,2.58
2022-08-12T18:44:09.424Z,2.70
2022-08-12T18:46:54.493Z,2.40
2022-08-12T18:49:33.391Z,2.28
2022-08-12T18:52:11.942Z,2.00
2022-08-12T18:54:48.970Z,2.30
2022-08-12T18:57:59.702Z,2.20
2022-08-12T19:00:21.046Z,2.20
2022-08-12T19:02:54.852Z,2.20
2022-08-12T19:05:45.803Z,2.70
2022-08-12T19:08:14.570Z,2.30
2022-08-12T19:10:48.073Z,2.60
2022-08-12T19:13:33.919Z,2.40
2022-08-12T19:16:12.602Z,2.30
2022-08-12T19:18:45.737Z,2.40
2022-08-12T19:21:20.187Z,2.10
2022-08-12T19:24:11.243Z,2.25
2022-08-12T19:26:38.825Z,2.28
2022-08-12T19:29:10.762Z,2.35
2022-08-12T19:31:57.449Z,2.90
2022-08-12T19:37:38.356Z,4.43
2022-08-12T19:40:30.809Z,4.30
2022-08-12T19:43:19.399Z,3.95
2022-08-12T19:45:53.726Z,4.47
2022-08-12T19:48:24.938Z,4.10
2022-08-12T19:51:08.622Z,4.47
2022-08-12T19:53:56.681Z,4.13
2022-08-12T19:56:28.110Z,5.30
2022-08-12T19:59:20.826Z,5.82
2022-08-12T20:02:02.563Z,6.32
2022-08-12T20:04:37.494Z,6.45
2022-08-12T20:07:23.331Z,6.80
2022-08-12T20:09:54.188Z,6.33
2022-08-12T20:12:31.732Z,5.45
2022-08-12T20:15:05.386Z,4.10
2022-08-12T20:17:36.398Z,3.50
2022-08-12T20:20:27.517Z,3.65
2022-08-12T20:23:00.638Z,2.80
2022-08-12T20:25:52.495Z,2.70
2022-08-12T20:28:28.797Z,3.10
2022-08-12T20:30:59.816Z,2.70
2022-08-12T20:33:32.599Z,2.90
2022-08-12T20:36:40.881Z,2.70
2022-08-12T20:39:35.978Z,2.60
2022-08-12T20:42:07.811Z,2.45
2022-08-12T20:44:40.247Z,2.60
2022-08-12T20:47:18.243Z,2.88
2022-08-12T20:49:55.649Z,2.60
2022-08-12T20:52:34.248Z,2.80
2022-08-12T20:55:17.118Z,2.97
2022-08-12T20:58:02.660Z,2.50
2022-08-12T21:00:34.871Z,2.67
2022-08-12T21:03:18.181Z,2.60
2022-08-12T21:06:12.300Z,2.50
2022-08-12T21:08:43.938Z,2.50
2022-08-12T21:11:19.552Z,2.40
2022-08-12T21:13:49.396Z,2.70
2022-08-12T21:16:35.538Z,2.60
2022-08-12T21:19:08.052Z,2.88
2022-08-12T21:21:50.287Z,2.80
2022-08-12T21:24:20.668Z,2.90
2022-08-12T21:27:07.349Z,2.80
2022-08-12T21:29:49.950Z,2.70
2022-08-12T21:32:47.061Z,2.28
2022-08-12T21:35:17.521Z,2.67
2022-08-12T21:37:53.225Z,2.45
2022-08-12T21:40:32.346Z,2.50
2022-08-12T21:43:10.065Z,2.55
2022-08-12T21:45:47.492Z,2.50
2022-08-12T21:48:30.551Z,2.90
2022-08-12T21:51:00.235Z,2.60
2022-08-12T21:54:06.091Z,2.55
2022-08-12T21:56:34.407Z,2.50
2022-08-12T21:59:14.411Z,2.60
2022-08-12T22:01:48.971Z,3.00
2022-08-12T22:04:32.227Z,3.17
2022-08-12T22:07:03.192Z,2.80
2022-08-12T22:09:42.664Z,2.50
2022-08-12T22:12:26.185Z,2.70
2022-08-12T22:14:59.624Z,2.60
2022-08-12T22:17:50.119Z,2.40
2022-08-12T22:20:21.828Z,2.30
2022-08-12T22:22:56.468Z,2.80
2022-08-12T22:25:27.756Z,2.63
2022-08-12T22:28:10.206Z,2.77
2022-08-12T22:31:01.121Z,3.00
2022-08-12T22:33:30.880Z,2.80
2022-08-12T22:36:28.796Z,2.80
2022-08-12T22:39:01.694Z,2.80
2022-08-12T22:41:43.824Z,3.00
2022-08-12T22:44:27.906Z,2.90
2022-08-12T22:47:12.844Z,3.00
2022-08-12T22:50:03.759Z,2.50
2022-08-12T22:52:35.127Z,2.50
2022-08-12T22:55:04.829Z,2.30
2022-08-12T22:57:49.824Z,2.40
2022-08-12T23:00:28.083Z,2.60
2022-08-12T23:03:03.335Z,2.90
2022-08-12T23:05:57.130Z,2.67
2022-08-12T23:08:30.177Z,2.75
2022-08-12T23:11:04.553Z,3.13
2022-08-12T23:13:48.658Z,2.50
2022-08-12T23:16:29.323Z,2.70
2022-08-12T23:19:10.443Z,2.90
2022-08-12T23:22:03.969Z,2.80
2022-08-12T23:24:55.654Z,2.97
2022-08-12T23:27:51.119Z,2.42
2022-08-12T23:30:32.320Z,3.00
2022-08-12T23:33:13.121Z,2.70
2022-08-12T23:35:59.347Z,2.88
2022-08-12T23:38:34.583Z,3.38
2022-08-12T23:41:05.684Z,2.70
2022-08-12T23:43:39.847Z,2.58
2022-08-12T23:46:11.662Z,2.80
2022-08-12T23:48:47.690Z,2.60
2022-08-12T23:51:25.236Z,2.70
2022-08-12T23:53:59.878Z,2.80
2022-08-12T23:56:33.639Z,2.67
2022-08-12T23:59:04.134Z,2.60
